Airfield :
LOGIN :

Register | Disclaimer

   EN    FR    IT 

 










Legend :    VFR   Marginal VFR   IFR   Intensive IFR   Very Intensive IFR
Visi :
Ceiling :
>= 8 km
>= 3000ft
5 to 8 km
1000 to 3000 ft
1500m to 5 km
500 to 1000 ft
800 to 1500m
200 to 500 ft
< 800m
< 200 ft
Symbols :   Thunderstorms  Fog  Heavy snow  Heavy precipitations  Wind > 20 kt
SIGMETs :     Misc.  Thunderstorms  Icing  Turbulence  Mountain Waves  Volcanic Ashes







- Airport Elevation : 117 ft
- IATA code : NWI
- Download approach charts


EGSH - Norwich

CURRENT METAR :
  • 250020Z AUTO 30014KT 260V350 6000 -RA FEW001/// BKN005/// BKN008/// 10/09 Q1005 RERA REDZ

EXPIRED METARs :
  • 242350Z AUTO 25015KT 9999 BKN010/// OVC029/// 12/11 Q1004
  • 242320Z AUTO 24016G26KT 9999 FEW003/// BKN010/// BKN014/// 12/11 Q1004 RERA REDZ
  • 242250Z AUTO 23015KT 9999 FEW005/// BKN008/// BKN012/// 12/11 Q1004
  • 242220Z AUTO 23014KT 200V260 9999 BKN010/// BKN014/// OVC024/// 13/11 Q1004 RERA REDZ
  • 242150Z AUTO 22015KT 8000 RA SCT010/// BKN015/// OVC019/// 13/11 Q1004

Expired Forecast.
ATIS : +44 1603 420 640
No reported NOTAMs for that airfield.



MET'MAP, your aeronautical weather chart ! - Copyright ORBIFLY December 2007 - Disclaimer

ORBIFLY MET'MAP TEAM :

Programming & Development : Alexandra Zaïnal
Concept & Development : Baudouin d'Aumeries
Co-Development & Prog : Marc-Olivier Méhu
Technical & hardware support : Manuel Goepfert

Contact : metmap@orbifly.com




SOURCES & CREDITS :

   NOAA